sensor_id;sensor_type;location;lat;lon;timestamp;temperature;humidity
13806;DHT22;6974;53.606;9.872;2023-02-26T00:02:14;2.50;99.90
13806;DHT22;6974;53.606;9.872;2023-02-26T00:04:41;2.50;99.90
13806;DHT22;6974;53.606;9.872;2023-02-26T00:07:09;2.50;99.90
13806;DHT22;6974;53.606;9.872;2023-02-26T00:09:36;2.40;99.90
13806;DHT22;6974;53.606;9.872;2023-02-26T00:12:03;2.40;99.90
13806;DHT22;6974;53.606;9.872;2023-02-26T00:14:30;2.30;99.90
13806;DHT22;6974;53.606;9.872;2023-02-26T00:17:17;2.30;99.90
13806;DHT22;6974;53.606;9.872;2023-02-26T00:19:49;2.30;99.90
13806;DHT22;6974;53.606;9.872;2023-02-26T00:22:18;2.30;99.90
13806;DHT22;6974;53.606;9.872;2023-02-26T00:24:45;2.30;99.90
13806;DHT22;6974;53.606;9.872;2023-02-26T00:27:11;2.40;99.90
13806;DHT22;6974;53.606;9.872;2023-02-26T00:29:39;2.40;99.90
13806;DHT22;6974;53.606;9.872;2023-02-26T00:32:07;2.40;99.90
13806;DHT22;6974;53.606;9.872;2023-02-26T00:34:34;2.40;99.90
13806;DHT22;6974;53.606;9.872;2023-02-26T00:37:10;2.30;99.90
13806;DHT22;6974;53.606;9.872;2023-02-26T00:39:49;2.30;99.90
13806;DHT22;6974;53.606;9.872;2023-02-26T00:42:18;2.20;99.90
13806;DHT22;6974;53.606;9.872;2023-02-26T00:44:45;2.20;99.90
13806;DHT22;6974;53.606;9.872;2023-02-26T00:47:19;2.20;99.90
13806;DHT22;6974;53.606;9.872;2023-02-26T00:50:03;2.20;99.90
13806;DHT22;6974;53.606;9.872;2023-02-26T00:52:37;2.20;99.90
13806;DHT22;6974;53.606;9.872;2023-02-26T00:55:06;2.20;99.90
13806;DHT22;6974;53.606;9.872;2023-02-26T00:57:33;2.20;99.90
13806;DHT22;6974;53.606;9.872;2023-02-26T01:00:00;2.20;99.90
13806;DHT22;6974;53.606;9.872;2023-02-26T01:02:27;2.10;99.90
13806;DHT22;6974;53.606;9.872;2023-02-26T01:04:54;2.10;99.90
13806;DHT22;6974;53.606;9.872;2023-02-26T01:07:22;2.20;99.90
13806;DHT22;6974;53.606;9.872;2023-02-26T01:09:51;2.20;99.90
13806;DHT22;6974;53.606;9.872;2023-02-26T01:12:19;2.20;99.90
13806;DHT22;6974;53.606;9.872;2023-02-26T01:14:47;2.10;99.90
13806;DHT22;6974;53.606;9.872;2023-02-26T01:17:18;2.10;99.90
13806;DHT22;6974;53.606;9.872;2023-02-26T01:19:50;2.20;99.90
13806;DHT22;6974;53.606;9.872;2023-02-26T01:22:21;2.10;99.90
13806;DHT22;6974;53.606;9.872;2023-02-26T01:24:51;2.10;99.90
13806;DHT22;6974;53.606;9.872;2023-02-26T01:27:21;2.20;99.90
13806;DHT22;6974;53.606;9.872;2023-02-26T01:29:48;2.20;99.90
13806;DHT22;6974;53.606;9.872;2023-02-26T01:32:18;2.20;99.90
13806;DHT22;6974;53.606;9.872;2023-02-26T01:34:54;2.20;99.90
13806;DHT22;6974;53.606;9.872;2023-02-26T01:37:27;2.30;99.90
13806;DHT22;6974;53.606;9.872;2023-02-26T01:40:17;2.30;99.90
13806;DHT22;6974;53.606;9.872;2023-02-26T01:42:53;2.30;99.90
13806;DHT22;6974;53.606;9.872;2023-02-26T01:45:28;2.30;99.90
13806;DHT22;6974;53.606;9.872;2023-02-26T01:48:01;2.30;99.90
13806;DHT22;6974;53.606;9.872;2023-02-26T01:50:31;2.30;99.90
13806;DHT22;6974;53.606;9.872;2023-02-26T01:53:21;2.30;99.90
13806;DHT22;6974;53.606;9.872;2023-02-26T01:55:51;2.40;99.90
13806;DHT22;6974;53.606;9.872;2023-02-26T01:58:23;2.40;99.90
13806;DHT22;6974;53.606;9.872;2023-02-26T02:00:51;2.40;99.90
13806;DHT22;6974;53.606;9.872;2023-02-26T02:03:19;2.40;99.90
13806;DHT22;6974;53.606;9.872;2023-02-26T02:05:48;2.40;99.90
13806;DHT22;6974;53.606;9.872;2023-02-26T02:08:16;2.50;99.90
13806;DHT22;6974;53.606;9.872;2023-02-26T02:10:45;2.50;99.90
13806;DHT22;6974;53.606;9.872;2023-02-26T02:13:23;2.40;99.90
13806;DHT22;6974;53.606;9.872;2023-02-26T02:15:56;2.40;99.90
13806;DHT22;6974;53.606;9.872;2023-02-26T02:18:34;2.40;99.90
13806;DHT22;6974;53.606;9.872;2023-02-26T02:21:34;2.30;99.90
13806;DHT22;6974;53.606;9.872;2023-02-26T02:24:11;2.30;99.90
13806;DHT22;6974;53.606;9.872;2023-02-26T02:26:52;2.20;99.90
13806;DHT22;6974;53.606;9.872;2023-02-26T02:29:48;2.20;99.90
13806;DHT22;6974;53.606;9.872;2023-02-26T02:32:19;2.20;99.90
13806;DHT22;6974;53.606;9.872;2023-02-26T02:34:48;2.20;99.90
13806;DHT22;6974;53.606;9.872;2023-02-26T02:37:20;2.20;99.90
13806;DHT22;6974;53.606;9.872;2023-02-26T02:39:53;2.10;99.90
13806;DHT22;6974;53.606;9.872;2023-02-26T02:42:25;2.10;99.90
13806;DHT22;6974;53.606;9.872;2023-02-26T02:44:57;2.00;99.90
13806;DHT22;6974;53.606;9.872;2023-02-26T02:47:29;2.10;99.90
13806;DHT22;6974;53.606;9.872;2023-02-26T02:50:00;2.00;99.90
13806;DHT22;6974;53.606;9.872;2023-02-26T02:52:31;2.00;99.90
13806;DHT22;6974;53.606;9.872;2023-02-26T02:55:04;2.10;99.90
13806;DHT22;6974;53.606;9.872;2023-02-26T02:57:36;2.00;99.90
13806;DHT22;6974;53.606;9.872;2023-02-26T03:00:06;2.00;99.90
13806;DHT22;6974;53.606;9.872;2023-02-26T03:02:40;2.00;99.90
13806;DHT22;6974;53.606;9.872;2023-02-26T03:05:09;2.00;99.90
13806;DHT22;6974;53.606;9.872;2023-02-26T03:07:40;2.00;99.90
13806;DHT22;6974;53.606;9.872;2023-02-26T03:10:10;2.00;99.90
13806;DHT22;6974;53.606;9.872;2023-02-26T03:12:37;1.90;99.90
13806;DHT22;6974;53.606;9.872;2023-02-26T03:15:05;1.90;99.90
13806;DHT22;6974;53.606;9.872;2023-02-26T03:17:38;2.00;99.90
13806;DHT22;6974;53.606;9.872;2023-02-26T03:20:18;1.90;99.90
13806;DHT22;6974;53.606;9.872;2023-02-26T03:22:57;1.90;99.90
13806;DHT22;6974;53.606;9.872;2023-02-26T03:25:31;1.80;99.90
13806;DHT22;6974;53.606;9.872;2023-02-26T03:28:05;1.80;99.90
13806;DHT22;6974;53.606;9.872;2023-02-26T03:30:37;1.90;99.90
13806;DHT22;6974;53.606;9.872;2023-02-26T03:33:11;1.80;99.90
13806;DHT22;6974;53.606;9.872;2023-02-26T03:35:46;1.80;99.90
13806;DHT22;6974;53.606;9.872;2023-02-26T03:38:20;1.70;99.90
13806;DHT22;6974;53.606;9.872;2023-02-26T03:40:52;1.70;99.90
13806;DHT22;6974;53.606;9.872;2023-02-26T03:43:23;1.70;99.90
13806;DHT22;6974;53.606;9.872;2023-02-26T03:45:55;1.60;99.90
13806;DHT22;6974;53.606;9.872;2023-02-26T03:48:26;1.60;99.90
13806;DHT22;6974;53.606;9.872;2023-02-26T03:50:57;1.50;99.90
13806;DHT22;6974;53.606;9.872;2023-02-26T03:53:29;1.60;99.90
13806;DHT22;6974;53.606;9.872;2023-02-26T03:56:01;1.60;99.90
13806;DHT22;6974;53.606;9.872;2023-02-26T03:58:29;1.60;99.90
13806;DHT22;6974;53.606;9.872;2023-02-26T04:01:00;1.60;99.90
13806;DHT22;6974;53.606;9.872;2023-02-26T04:03:34;1.60;99.90
13806;DHT22;6974;53.606;9.872;2023-02-26T04:06:02;1.50;99.90
13806;DHT22;6974;53.606;9.872;2023-02-26T04:08:30;1.50;99.90
13806;DHT22;6974;53.606;9.872;2023-02-26T04:10:58;1.50;99.90
13806;DHT22;6974;53.606;9.872;2023-02-26T04:13:27;1.50;99.90
13806;DHT22;6974;53.606;9.872;2023-02-26T04:15:53;1.50;99.90
13806;DHT22;6974;53.606;9.872;2023-02-26T04:18:20;1.50;99.90
13806;DHT22;6974;53.606;9.872;2023-02-26T04:20:49;1.50;99.90
13806;DHT22;6974;53.606;9.872;2023-02-26T04:23:16;1.50;99.90
13806;DHT22;6974;53.606;9.872;2023-02-26T04:25:44;1.60;99.90
13806;DHT22;6974;53.606;9.872;2023-02-26T04:28:10;1.60;99.90
13806;DHT22;6974;53.606;9.872;2023-02-26T04:30:37;1.60;99.90
13806;DHT22;6974;53.606;9.872;2023-02-26T04:33:04;1.60;99.90
13806;DHT22;6974;53.606;9.872;2023-02-26T04:35:31;1.60;99.90
13806;DHT22;6974;53.606;9.872;2023-02-26T04:37:59;1.50;99.90
13806;DHT22;6974;53.606;9.872;2023-02-26T04:40:26;1.50;99.90
13806;DHT22;6974;53.606;9.872;2023-02-26T04:42:53;1.40;99.90
13806;DHT22;6974;53.606;9.872;2023-02-26T04:45:20;1.50;99.90
13806;DHT22;6974;53.606;9.872;2023-02-26T04:47:46;1.50;99.90
13806;DHT22;6974;53.606;9.872;2023-02-26T04:50:13;1.40;99.90
13806;DHT22;6974;53.606;9.872;2023-02-26T04:52:40;1.40;99.90
13806;DHT22;6974;53.606;9.872;2023-02-26T04:55:09;1.40;99.90
13806;DHT22;6974;53.606;9.872;2023-02-26T04:57:35;1.40;99.90
13806;DHT22;6974;53.606;9.872;2023-02-26T05:00:03;1.40;99.90
13806;DHT22;6974;53.606;9.872;2023-02-26T05:02:32;1.40;99.90
13806;DHT22;6974;53.606;9.872;2023-02-26T05:04:59;1.50;99.90
13806;DHT22;6974;53.606;9.872;2023-02-26T05:07:26;1.40;99.90
13806;DHT22;6974;53.606;9.872;2023-02-26T05:09:53;1.50;99.90
13806;DHT22;6974;53.606;9.872;2023-02-26T05:12:21;1.50;99.90
13806;DHT22;6974;53.606;9.872;2023-02-26T05:14:48;1.40;99.90
13806;DHT22;6974;53.606;9.872;2023-02-26T05:17:15;1.40;99.90
13806;DHT22;6974;53.606;9.872;2023-02-26T05:19:42;1.40;99.90
13806;DHT22;6974;53.606;9.872;2023-02-26T05:22:08;1.30;99.90
13806;DHT22;6974;53.606;9.872;2023-02-26T05:24:35;1.30;99.90
13806;DHT22;6974;53.606;9.872;2023-02-26T05:27:02;1.30;99.90
13806;DHT22;6974;53.606;9.872;2023-02-26T05:29:30;1.30;99.90
13806;DHT22;6974;53.606;9.872;2023-02-26T05:31:57;1.30;99.90
13806;DHT22;6974;53.606;9.872;2023-02-26T05:34:24;1.30;99.90
13806;DHT22;6974;53.606;9.872;2023-02-26T05:36:51;1.30;99.90
13806;DHT22;6974;53.606;9.872;2023-02-26T05:39:18;1.30;99.90
13806;DHT22;6974;53.606;9.872;2023-02-26T05:41:45;1.30;99.90
13806;DHT22;6974;53.606;9.872;2023-02-26T05:44:12;1.30;99.90
13806;DHT22;6974;53.606;9.872;2023-02-26T05:46:40;1.30;99.90
13806;DHT22;6974;53.606;9.872;2023-02-26T05:49:07;1.40;99.90
13806;DHT22;6974;53.606;9.872;2023-02-26T05:51:34;1.30;99.90
13806;DHT22;6974;53.606;9.872;2023-02-26T05:54:01;1.30;99.90
13806;DHT22;6974;53.606;9.872;2023-02-26T05:56:28;1.30;99.90
13806;DHT22;6974;53.606;9.872;2023-02-26T05:58:55;1.30;99.90
13806;DHT22;6974;53.606;9.872;2023-02-26T06:01:22;1.30;99.90
13806;DHT22;6974;53.606;9.872;2023-02-26T06:03:50;1.20;99.90
13806;DHT22;6974;53.606;9.872;2023-02-26T06:06:17;1.20;99.90
13806;DHT22;6974;53.606;9.872;2023-02-26T06:08:44;1.20;99.90
13806;DHT22;6974;53.606;9.872;2023-02-26T06:11:11;1.20;99.90
13806;DHT22;6974;53.606;9.872;2023-02-26T06:13:38;1.20;99.90
13806;DHT22;6974;53.606;9.872;2023-02-26T06:16:05;1.20;99.90
13806;DHT22;6974;53.606;9.872;2023-02-26T06:18:33;1.20;99.90
13806;DHT22;6974;53.606;9.872;2023-02-26T06:21:01;1.10;99.90
13806;DHT22;6974;53.606;9.872;2023-02-26T06:23:28;1.20;99.90
13806;DHT22;6974;53.606;9.872;2023-02-26T06:25:55;1.10;99.90
13806;DHT22;6974;53.606;9.872;2023-02-26T06:28:24;1.10;99.90
13806;DHT22;6974;53.606;9.872;2023-02-26T06:30:51;1.10;99.90
13806;DHT22;6974;53.606;9.872;2023-02-26T06:33:18;1.20;99.90
13806;DHT22;6974;53.606;9.872;2023-02-26T06:35:45;1.20;99.90
13806;DHT22;6974;53.606;9.872;2023-02-26T06:38:13;1.20;99.90
13806;DHT22;6974;53.606;9.872;2023-02-26T06:40:41;1.20;99.90
13806;DHT22;6974;53.606;9.872;2023-02-26T06:43:08;1.20;99.90
13806;DHT22;6974;53.606;9.872;2023-02-26T06:45:35;1.20;99.90
13806;DHT22;6974;53.606;9.872;2023-02-26T06:48:02;1.20;99.90
13806;DHT22;6974;53.606;9.872;2023-02-26T06:50:29;1.20;99.90
13806;DHT22;6974;53.606;9.872;2023-02-26T06:52:56;1.20;99.90
13806;DHT22;6974;53.606;9.872;2023-02-26T06:55:24;1.30;99.90
13806;DHT22;6974;53.606;9.872;2023-02-26T06:57:52;1.30;99.90
13806;DHT22;6974;53.606;9.872;2023-02-26T07:00:19;1.30;99.90
13806;DHT22;6974;53.606;9.872;2023-02-26T07:02:47;1.40;99.90
13806;DHT22;6974;53.606;9.872;2023-02-26T07:05:14;1.40;99.90
13806;DHT22;6974;53.606;9.872;2023-02-26T07:07:41;1.50;99.90
13806;DHT22;6974;53.606;9.872;2023-02-26T07:10:09;1.60;99.90
13806;DHT22;6974;53.606;9.872;2023-02-26T07:12:37;1.60;99.90
13806;DHT22;6974;53.606;9.872;2023-02-26T07:15:05;1.70;99.90
13806;DHT22;6974;53.606;9.872;2023-02-26T07:17:32;1.70;99.90
13806;DHT22;6974;53.606;9.872;2023-02-26T07:19:58;1.70;99.90
13806;DHT22;6974;53.606;9.872;2023-02-26T07:22:31;1.60;99.90
13806;DHT22;6974;53.606;9.872;2023-02-26T07:24:58;1.60;99.90
13806;DHT22;6974;53.606;9.872;2023-02-26T07:27:25;1.60;99.90
13806;DHT22;6974;53.606;9.872;2023-02-26T07:29:55;1.60;99.90
13806;DHT22;6974;53.606;9.872;2023-02-26T07:32:22;1.60;99.90
13806;DHT22;6974;53.606;9.872;2023-02-26T07:34:49;1.60;99.90
13806;DHT22;6974;53.606;9.872;2023-02-26T07:37:16;1.70;99.90
13806;DHT22;6974;53.606;9.872;2023-02-26T07:39:43;1.70;99.90
13806;DHT22;6974;53.606;9.872;2023-02-26T07:42:11;1.70;99.90
13806;DHT22;6974;53.606;9.872;2023-02-26T07:44:38;1.70;99.90
13806;DHT22;6974;53.606;9.872;2023-02-26T07:47:06;1.70;99.90
13806;DHT22;6974;53.606;9.872;2023-02-26T07:49:33;1.80;99.90
13806;DHT22;6974;53.606;9.872;2023-02-26T07:52:00;1.80;99.90
13806;DHT22;6974;53.606;9.872;2023-02-26T07:54:28;1.90;99.90
13806;DHT22;6974;53.606;9.872;2023-02-26T07:56:55;1.90;99.90
13806;DHT22;6974;53.606;9.872;2023-02-26T07:59:22;2.00;99.90
13806;DHT22;6974;53.606;9.872;2023-02-26T08:01:48;2.10;99.90
13806;DHT22;6974;53.606;9.872;2023-02-26T08:04:17;2.00;99.90
13806;DHT22;6974;53.606;9.872;2023-02-26T08:06:43;2.00;99.90
13806;DHT22;6974;53.606;9.872;2023-02-26T08:09:10;2.10;99.90
13806;DHT22;6974;53.606;9.872;2023-02-26T08:11:37;2.10;99.90
13806;DHT22;6974;53.606;9.872;2023-02-26T08:14:08;2.10;99.90
13806;DHT22;6974;53.606;9.872;2023-02-26T08:16:35;2.20;99.90
13806;DHT22;6974;53.606;9.872;2023-02-26T08:19:02;2.10;99.90
13806;DHT22;6974;53.606;9.872;2023-02-26T08:21:30;2.20;99.90
13806;DHT22;6974;53.606;9.872;2023-02-26T08:23:57;2.30;99.90
13806;DHT22;6974;53.606;9.872;2023-02-26T08:26:24;2.30;99.90
13806;DHT22;6974;53.606;9.872;2023-02-26T08:28:51;2.40;99.90
13806;DHT22;6974;53.606;9.872;2023-02-26T08:31:18;2.40;99.90
13806;DHT22;6974;53.606;9.872;2023-02-26T08:33:45;2.50;99.90
13806;DHT22;6974;53.606;9.872;2023-02-26T08:36:12;2.50;99.90
13806;DHT22;6974;53.606;9.872;2023-02-26T08:38:40;2.50;99.90
13806;DHT22;6974;53.606;9.872;2023-02-26T08:41:07;2.60;99.90
13806;DHT22;6974;53.606;9.872;2023-02-26T08:43:34;2.60;99.90
13806;DHT22;6974;53.606;9.872;2023-02-26T08:46:01;2.60;99.90
13806;DHT22;6974;53.606;9.872;2023-02-26T08:48:28;2.60;99.90
13806;DHT22;6974;53.606;9.872;2023-02-26T08:50:54;2.80;99.90
13806;DHT22;6974;53.606;9.872;2023-02-26T08:53:22;2.80;99.90
13806;DHT22;6974;53.606;9.872;2023-02-26T08:55:51;2.80;99.90
13806;DHT22;6974;53.606;9.872;2023-02-26T08:58:19;3.00;99.90
13806;DHT22;6974;53.606;9.872;2023-02-26T09:00:47;3.20;99.90
13806;DHT22;6974;53.606;9.872;2023-02-26T09:03:14;3.10;99.90
13806;DHT22;6974;53.606;9.872;2023-02-26T09:05:41;3.20;99.90
13806;DHT22;6974;53.606;9.872;2023-02-26T09:08:08;3.20;99.90
13806;DHT22;6974;53.606;9.872;2023-02-26T09:10:36;3.30;99.90
13806;DHT22;6974;53.606;9.872;2023-02-26T09:13:04;3.30;99.90
13806;DHT22;6974;53.606;9.872;2023-02-26T09:15:31;3.40;99.90
13806;DHT22;6974;53.606;9.872;2023-02-26T09:17:58;3.50;99.90
13806;DHT22;6974;53.606;9.872;2023-02-26T09:20:26;3.60;99.90
13806;DHT22;6974;53.606;9.872;2023-02-26T09:22:53;3.60;99.90
13806;DHT22;6974;53.606;9.872;2023-02-26T09:25:19;3.70;99.90
13806;DHT22;6974;53.606;9.872;2023-02-26T09:27:46;3.70;99.90
13806;DHT22;6974;53.606;9.872;2023-02-26T09:30:15;3.60;99.90
13806;DHT22;6974;53.606;9.872;2023-02-26T09:32:42;3.60;99.90
13806;DHT22;6974;53.606;9.872;2023-02-26T09:35:09;3.60;99.90
13806;DHT22;6974;53.606;9.872;2023-02-26T09:37:37;3.60;99.90
13806;DHT22;6974;53.606;9.872;2023-02-26T09:40:06;3.70;99.90
13806;DHT22;6974;53.606;9.872;2023-02-26T09:42:45;3.80;99.90
13806;DHT22;6974;53.606;9.872;2023-02-26T09:45:24;3.90;99.90
13806;DHT22;6974;53.606;9.872;2023-02-26T09:47:52;4.10;99.90
13806;DHT22;6974;53.606;9.872;2023-02-26T09:50:23;4.10;99.90
13806;DHT22;6974;53.606;9.872;2023-02-26T09:52:54;4.00;99.90
13806;DHT22;6974;53.606;9.872;2023-02-26T09:55:27;4.20;99.90
13806;DHT22;6974;53.606;9.872;2023-02-26T09:57:58;4.20;99.90
13806;DHT22;6974;53.606;9.872;2023-02-26T10:00:33;4.40;99.90
13806;DHT22;6974;53.606;9.872;2023-02-26T10:03:14;4.50;99.90
13806;DHT22;6974;53.606;9.872;2023-02-26T10:05:48;4.80;99.90
13806;DHT22;6974;53.606;9.872;2023-02-26T10:08:20;4.90;99.90
13806;DHT22;6974;53.606;9.872;2023-02-26T10:10:57;5.10;99.90
13806;DHT22;6974;53.606;9.872;2023-02-26T10:13:34;5.20;99.90
13806;DHT22;6974;53.606;9.872;2023-02-26T10:16:10;5.30;99.90
13806;DHT22;6974;53.606;9.872;2023-02-26T10:18:41;5.50;99.90
13806;DHT22;6974;53.606;9.872;2023-02-26T10:21:14;5.50;99.90
13806;DHT22;6974;53.606;9.872;2023-02-26T10:23:44;5.70;99.90
13806;DHT22;6974;53.606;9.872;2023-02-26T10:26:17;5.80;99.90
13806;DHT22;6974;53.606;9.872;2023-02-26T10:28:53;6.00;99.90
13806;DHT22;6974;53.606;9.872;2023-02-26T10:31:30;6.20;99.90
13806;DHT22;6974;53.606;9.872;2023-02-26T10:34:09;6.30;99.90
13806;DHT22;6974;53.606;9.872;2023-02-26T10:36:44;6.20;99.90
13806;DHT22;6974;53.606;9.872;2023-02-26T10:39:20;6.10;99.90
13806;DHT22;6974;53.606;9.872;2023-02-26T10:41:49;5.80;99.90
13806;DHT22;6974;53.606;9.872;2023-02-26T10:44:21;5.80;99.90
13806;DHT22;6974;53.606;9.872;2023-02-26T10:46:58;6.00;99.90
13806;DHT22;6974;53.606;9.872;2023-02-26T10:49:39;6.00;99.90
13806;DHT22;6974;53.606;9.872;2023-02-26T10:52:14;6.00;99.90
13806;DHT22;6974;53.606;9.872;2023-02-26T10:54:49;6.10;99.90
13806;DHT22;6974;53.606;9.872;2023-02-26T10:57:28;6.00;99.90
13806;DHT22;6974;53.606;9.872;2023-02-26T10:59:57;6.00;99.90
13806;DHT22;6974;53.606;9.872;2023-02-26T11:02:36;5.90;99.90
13806;DHT22;6974;53.606;9.872;2023-02-26T11:05:06;5.90;99.90
13806;DHT22;6974;53.606;9.872;2023-02-26T11:07:35;5.90;99.90
13806;DHT22;6974;53.606;9.872;2023-02-26T11:10:05;5.90;99.90
13806;DHT22;6974;53.606;9.872;2023-02-26T11:12:38;5.80;99.90
13806;DHT22;6974;53.606;9.872;2023-02-26T11:15:05;5.90;99.90
13806;DHT22;6974;53.606;9.872;2023-02-26T11:17:38;6.00;99.90
13806;DHT22;6974;53.606;9.872;2023-02-26T11:20:14;6.10;99.90
13806;DHT22;6974;53.606;9.872;2023-02-26T11:22:45;6.20;99.90
13806;DHT22;6974;53.606;9.872;2023-02-26T11:25:13;6.20;99.90
13806;DHT22;6974;53.606;9.872;2023-02-26T11:27:42;6.10;99.90
13806;DHT22;6974;53.606;9.872;2023-02-26T11:30:15;6.00;99.90
13806;DHT22;6974;53.606;9.872;2023-02-26T11:32:49;6.00;99.90
13806;DHT22;6974;53.606;9.872;2023-02-26T11:35:19;5.70;99.90
13806;DHT22;6974;53.606;9.872;2023-02-26T11:37:51;5.70;99.90
13806;DHT22;6974;53.606;9.872;2023-02-26T11:40:23;5.60;99.90
13806;DHT22;6974;53.606;9.872;2023-02-26T11:42:54;5.60;99.90
13806;DHT22;6974;53.606;9.872;2023-02-26T11:45:21;5.80;99.90
13806;DHT22;6974;53.606;9.872;2023-02-26T11:47:56;5.80;99.90
13806;DHT22;6974;53.606;9.872;2023-02-26T11:50:24;5.80;99.90
13806;DHT22;6974;53.606;9.872;2023-02-26T11:52:55;5.90;99.90
13806;DHT22;6974;53.606;9.872;2023-02-26T11:55:28;5.90;99.90
13806;DHT22;6974;53.606;9.872;2023-02-26T11:57:56;5.80;99.90
13806;DHT22;6974;53.606;9.872;2023-02-26T12:00:26;5.80;99.90
13806;DHT22;6974;53.606;9.872;2023-02-26T12:02:59;5.80;99.90
13806;DHT22;6974;53.606;9.872;2023-02-26T12:05:29;5.80;99.90
13806;DHT22;6974;53.606;9.872;2023-02-26T12:07:57;5.80;99.90
13806;DHT22;6974;53.606;9.872;2023-02-26T12:10:29;5.90;99.90
13806;DHT22;6974;53.606;9.872;2023-02-26T12:13:08;5.80;99.90
13806;DHT22;6974;53.606;9.872;2023-02-26T12:15:41;5.80;99.90
13806;DHT22;6974;53.606;9.872;2023-02-26T12:18:35;5.90;99.90
13806;DHT22;6974;53.606;9.872;2023-02-26T12:24:03;5.80;99.90
13806;DHT22;6974;53.606;9.872;2023-02-26T12:26:35;5.90;99.90
13806;DHT22;6974;53.606;9.872;2023-02-26T12:29:21;5.90;99.90
13806;DHT22;6974;53.606;9.872;2023-02-26T12:32:03;6.00;99.90
13806;DHT22;6974;53.606;9.872;2023-02-26T12:34:59;6.00;99.90
13806;DHT22;6974;53.606;9.872;2023-02-26T12:37:39;6.10;99.90
13806;DHT22;6974;53.606;9.872;2023-02-26T12:40:17;6.30;99.90
13806;DHT22;6974;53.606;9.872;2023-02-26T12:42:53;6.30;99.90
13806;DHT22;6974;53.606;9.872;2023-02-26T12:45:41;6.20;99.90
13806;DHT22;6974;53.606;9.872;2023-02-26T12:48:33;6.10;99.90
13806;DHT22;6974;53.606;9.872;2023-02-26T12:51:13;6.10;99.90
13806;DHT22;6974;53.606;9.872;2023-02-26T12:53:57;6.10;99.90
13806;DHT22;6974;53.606;9.872;2023-02-26T12:59:48;6.20;99.90
13806;DHT22;6974;53.606;9.872;2023-02-26T13:05:29;6.20;99.90
13806;DHT22;6974;53.606;9.872;2023-02-26T13:08:13;6.30;99.90
13806;DHT22;6974;53.606;9.872;2023-02-26T13:10:52;6.30;99.90
13806;DHT22;6974;53.606;9.872;2023-02-26T13:13:34;6.40;99.90
13806;DHT22;6974;53.606;9.872;2023-02-26T13:16:12;6.40;99.90
13806;DHT22;6974;53.606;9.872;2023-02-26T13:18:47;6.50;99.90
13806;DHT22;6974;53.606;9.872;2023-02-26T13:21:20;6.50;99.90
13806;DHT22;6974;53.606;9.872;2023-02-26T13:23:52;6.50;99.90
13806;DHT22;6974;53.606;9.872;2023-02-26T13:26:25;6.50;99.90
13806;DHT22;6974;53.606;9.872;2023-02-26T13:28:56;6.50;99.90
13806;DHT22;6974;53.606;9.872;2023-02-26T13:31:27;6.50;99.90
13806;DHT22;6974;53.606;9.872;2023-02-26T13:33:57;6.40;99.90
13806;DHT22;6974;53.606;9.872;2023-02-26T13:36:26;6.30;99.90
13806;DHT22;6974;53.606;9.872;2023-02-26T13:39:06;6.30;99.90
13806;DHT22;6974;53.606;9.872;2023-02-26T13:41:42;6.30;99.90
13806;DHT22;6974;53.606;9.872;2023-02-26T13:44:20;6.30;99.90
13806;DHT22;6974;53.606;9.872;2023-02-26T13:47:08;6.30;99.90
13806;DHT22;6974;53.606;9.872;2023-02-26T13:49:54;6.20;99.90
13806;DHT22;6974;53.606;9.872;2023-02-26T13:52:27;6.30;99.90
13806;DHT22;6974;53.606;9.872;2023-02-26T13:54:56;6.30;99.90
13806;DHT22;6974;53.606;9.872;2023-02-26T13:57:34;6.30;99.90
13806;DHT22;6974;53.606;9.872;2023-02-26T14:00:09;6.20;99.90
13806;DHT22;6974;53.606;9.872;2023-02-26T14:02:46;6.20;99.90
13806;DHT22;6974;53.606;9.872;2023-02-26T14:08:42;6.30;99.90
13806;DHT22;6974;53.606;9.872;2023-02-26T14:11:45;6.40;99.90
13806;DHT22;6974;53.606;9.872;2023-02-26T14:14:29;6.40;99.90
13806;DHT22;6974;53.606;9.872;2023-02-26T14:17:19;6.40;99.90
13806;DHT22;6974;53.606;9.872;2023-02-26T14:20:16;6.40;99.90
13806;DHT22;6974;53.606;9.872;2023-02-26T14:22:47;6.30;99.90
13806;DHT22;6974;53.606;9.872;2023-02-26T14:25:19;6.30;99.90
13806;DHT22;6974;53.606;9.872;2023-02-26T14:27:49;6.30;99.90
13806;DHT22;6974;53.606;9.872;2023-02-26T14:30:28;6.30;99.90
13806;DHT22;6974;53.606;9.872;2023-02-26T14:33:07;6.30;99.90
13806;DHT22;6974;53.606;9.872;2023-02-26T14:35:39;6.30;99.90
13806;DHT22;6974;53.606;9.872;2023-02-26T14:38:11;6.40;99.90
13806;DHT22;6974;53.606;9.872;2023-02-26T14:40:43;6.30;99.90
13806;DHT22;6974;53.606;9.872;2023-02-26T14:43:19;6.50;99.90
13806;DHT22;6974;53.606;9.872;2023-02-26T14:45:49;6.60;99.90
13806;DHT22;6974;53.606;9.872;2023-02-26T14:48:21;6.60;99.90
13806;DHT22;6974;53.606;9.872;2023-02-26T14:50:59;6.70;99.90
13806;DHT22;6974;53.606;9.872;2023-02-26T14:53:49;6.60;99.90
13806;DHT22;6974;53.606;9.872;2023-02-26T14:56:25;6.60;99.90
13806;DHT22;6974;53.606;9.872;2023-02-26T14:59:10;6.60;99.90
13806;DHT22;6974;53.606;9.872;2023-02-26T15:01:46;6.60;99.90
13806;DHT22;6974;53.606;9.872;2023-02-26T15:04:38;6.50;99.90
13806;DHT22;6974;53.606;9.872;2023-02-26T15:07:21;6.30;99.90
13806;DHT22;6974;53.606;9.872;2023-02-26T15:10:04;6.40;99.90
13806;DHT22;6974;53.606;9.872;2023-02-26T15:12:46;6.30;99.90
13806;DHT22;6974;53.606;9.872;2023-02-26T15:15:35;6.40;99.90
13806;DHT22;6974;53.606;9.872;2023-02-26T15:18:14;6.40;99.90
13806;DHT22;6974;53.606;9.872;2023-02-26T15:20:52;6.30;99.90
13806;DHT22;6974;53.606;9.872;2023-02-26T15:23:38;6.30;99.90
13806;DHT22;6974;53.606;9.872;2023-02-26T15:26:18;6.30;99.90
13806;DHT22;6974;53.606;9.872;2023-02-26T15:28:47;6.30;99.90
13806;DHT22;6974;53.606;9.872;2023-02-26T15:31:19;6.30;99.90
13806;DHT22;6974;53.606;9.872;2023-02-26T15:33:47;6.30;99.90
13806;DHT22;6974;53.606;9.872;2023-02-26T15:36:17;6.20;99.90
13806;DHT22;6974;53.606;9.872;2023-02-26T15:38:59;6.30;99.90
13806;DHT22;6974;53.606;9.872;2023-02-26T15:41:29;6.30;99.90
13806;DHT22;6974;53.606;9.872;2023-02-26T15:44:01;6.40;99.90
13806;DHT22;6974;53.606;9.872;2023-02-26T15:46:34;6.40;99.90
13806;DHT22;6974;53.606;9.872;2023-02-26T15:49:06;6.50;99.90
13806;DHT22;6974;53.606;9.872;2023-02-26T15:51:35;6.50;99.90
13806;DHT22;6974;53.606;9.872;2023-02-26T15:54:02;6.50;99.90
13806;DHT22;6974;53.606;9.872;2023-02-26T15:56:34;6.50;99.90
13806;DHT22;6974;53.606;9.872;2023-02-26T15:59:03;6.50;99.90
13806;DHT22;6974;53.606;9.872;2023-02-26T16:01:36;6.50;99.90
13806;DHT22;6974;53.606;9.872;2023-02-26T16:04:10;6.50;99.90
13806;DHT22;6974;53.606;9.872;2023-02-26T16:06:40;6.40;99.90
13806;DHT22;6974;53.606;9.872;2023-02-26T16:09:15;6.30;99.90
13806;DHT22;6974;53.606;9.872;2023-02-26T16:11:43;6.30;99.90
13806;DHT22;6974;53.606;9.872;2023-02-26T16:14:16;6.20;99.90
13806;DHT22;6974;53.606;9.872;2023-02-26T16:16:48;6.10;99.90
13806;DHT22;6974;53.606;9.872;2023-02-26T16:19:17;5.90;99.90
13806;DHT22;6974;53.606;9.872;2023-02-26T16:21:45;5.90;99.90
13806;DHT22;6974;53.606;9.872;2023-02-26T16:24:15;5.90;99.90
13806;DHT22;6974;53.606;9.872;2023-02-26T16:26:47;5.90;99.90
13806;DHT22;6974;53.606;9.872;2023-02-26T16:29:19;5.90;99.90
13806;DHT22;6974;53.606;9.872;2023-02-26T16:31:52;5.80;99.90
13806;DHT22;6974;53.606;9.872;2023-02-26T16:34:24;5.80;99.90
13806;DHT22;6974;53.606;9.872;2023-02-26T16:36:54;5.80;99.90
13806;DHT22;6974;53.606;9.872;2023-02-26T16:39:24;5.70;99.90
13806;DHT22;6974;53.606;9.872;2023-02-26T16:42:02;5.70;99.90
13806;DHT22;6974;53.606;9.872;2023-02-26T16:44:44;5.70;99.90